Time;durP1;ratioP1;P1;durP2;ratioP2;P2;SDS_P1;SDS_P2;PMS_P1;PMS_P2;Temp;Humidity;BMP_temperature;BMP_pressure;BME280_temperature;BME280_humidity;BME280_pressure;Samples;Min_cycle;Max_cycle;Signal;HPM_P1;HPM_P2
2021/04/12 00:00:35;;;;;;;;;;;;;;;6.92;59.75;102114.66;1784029;80;21254;-78
2021/04/12 00:03:19;;;;;;;;;;;;;;;6.90;59.93;102109.14;1783563;80;20444;-78
2021/04/12 00:06:00;;;;;;;;;;;;;;;6.87;60.05;102108.79;1783858;79;20273;-80
2021/04/12 00:08:52;;;;;;;;;;;;;;;6.82;60.20;102106.80;1754337;80;20222;-80
2021/04/12 00:11:43;;;;;;;;;;;;;;;6.77;60.40;102099.61;1783808;80;20135;-79
2021/04/12 00:14:25;;;;;;;;;;;;;;;6.73;60.59;102094.13;1786165;80;21000;-77
2021/04/12 00:17:06;;;;;;;;;;;;;;;6.71;60.69;102095.91;1756666;80;20570;-79
2021/04/12 00:19:54;;;;;;;;;;;;;;;6.68;60.69;102091.27;1783627;80;20163;-79
2021/04/12 00:22:41;;;;;;;;;;;;;;;6.67;60.70;102085.73;1783643;79;20152;-78
2021/04/12 00:25:13;;;;;;;;;;;;;;;6.67;60.57;102079.28;1783639;80;20148;-77
2021/04/12 00:27:54;;;;;;;;;;;;;;;6.67;60.45;102074.94;1783754;80;21315;-78
2021/04/12 00:30:27;;;;;;;;;;;;;;;6.69;60.31;102071.05;1782586;80;20566;-78
2021/04/12 00:33:12;;;;;;;;;;;;;;;6.70;60.23;102071.45;1783845;80;20242;-76
2021/04/12 00:35:46;;;;;;;;;;;;;;;6.69;60.23;102068.47;1783704;80;20151;-78
2021/04/12 00:38:34;;;;;;;;;;;;;;;6.69;60.18;102069.31;1779272;79;20235;-76
2021/04/12 00:41:13;;;;;;;;;;;;;;;6.69;60.12;102067.17;1775319;80;20191;-74
2021/04/12 00:43:56;;;;;;;;;;;;;;;6.69;60.01;102074.92;1775246;80;20606;-79
2021/04/12 00:46:50;;;;;;;;;;;;;;;6.66;59.97;102070.69;1775397;81;20548;-78
2021/04/12 00:49:46;;;;;;;;;;;;;;;6.66;59.96;102068.55;1775315;81;20290;-74
2021/04/12 00:52:36;;;;;;;;;;;;;;;6.63;59.92;102058.32;1745458;80;20583;-74
2021/04/12 00:55:32;;;;;;;;;;;;;;;6.62;59.87;102061.34;1776191;81;21198;-79
2021/04/12 00:58:24;;;;;;;;;;;;;;;6.61;59.82;102057.50;1783953;79;20486;-79
2021/04/12 01:00:55;;;;;;;;;;;;;;;6.59;59.76;102053.69;1752992;81;20135;-75
2021/04/12 01:03:36;;;;;;;;;;;;;;;6.60;59.73;102044.22;1795153;79;20213;-80
2021/04/12 01:06:13;;;;;;;;;;;;;;;6.59;59.76;102042.52;1774976;80;20207;-77
2021/04/12 01:09:04;;;;;;;;;;;;;;;6.57;59.81;102040.44;1775467;81;21187;-79
2021/04/12 01:11:58;;;;;;;;;;;;;;;6.55;59.93;102044.77;1774845;80;20214;-78
2021/04/12 01:14:51;;;;;;;;;;;;;;;6.54;59.96;102040.52;1775330;81;20151;-79
2021/04/12 01:17:48;;;;;;;;;;;;;;;6.51;60.21;102036.73;1775419;81;20501;-77
2021/04/12 01:20:20;;;;;;;;;;;;;;;6.46;60.39;102038.58;1775482;80;20501;-79
2021/04/12 01:23:01;;;;;;;;;;;;;;;6.45;60.42;102038.17;1774436;80;21372;-76
2021/04/12 01:26:05;;;;;;;;;;;;;;;6.42;60.62;102039.55;1775214;81;20112;-79
2021/04/12 01:28:56;;;;;;;;;;;;;;;6.42;60.83;102039.55;1776475;80;20128;-78
2021/04/12 01:31:49;;;;;;;;;;;;;;;6.39;61.11;102035.32;1778249;81;20191;-76
2021/04/12 01:34:26;;;;;;;;;;;;;;;6.40;61.20;102029.28;1775417;81;20136;-79
2021/04/12 01:36:57;;;;;;;;;;;;;;;6.40;61.44;102030.58;1775398;81;22264;-77
2021/04/12 01:39:44;;;;;;;;;;;;;;;6.39;61.59;102029.72;1775211;79;20762;-79
2021/04/12 01:42:35;;;;;;;;;;;;;;;6.39;61.67;102027.14;1775274;80;20258;-76
2021/04/12 01:45:21;;;;;;;;;;;;;;;6.41;61.71;102010.80;1740362;80;20148;-80
2021/04/12 01:48:01;;;;;;;;;;;;;;;6.40;61.79;102007.38;1775297;81;20151;-76
2021/04/12 01:50:37;;;;;;;;;;;;;;;6.37;61.96;102013.91;1775313;81;20140;-79
2021/04/12 01:53:20;;;;;;;;;;;;;;;6.36;62.05;102018.20;1775187;80;20227;-80
2021/04/12 01:56:05;;;;;;;;;;;;;;;6.33;62.20;102010.55;1775309;80;20218;-76
2021/04/12 01:59:11;;;;;;;;;;;;;;;6.31;62.27;102013.63;1775154;80;20199;-75
2021/04/12 02:02:13;;;;;;;;;;;;;;;6.28;62.54;102009.84;1775316;81;20132;-78
2021/04/12 02:05:00;;;;;;;;;;;;;;;6.24;62.88;102006.94;1775468;81;22199;-81
2021/04/12 02:07:31;;;;;;;;;;;;;;;6.20;63.19;102014.34;1776905;81;20216;-77
2021/04/12 02:10:11;;;;;;;;;;;;;;;6.17;63.43;102009.70;1778680;81;20112;-78
2021/04/12 02:13:02;;;;;;;;;;;;;;;6.13;63.52;102008.94;1775346;80;20218;-78
2021/04/12 02:15:53;;;;;;;;;;;;;;;6.10;63.80;102012.04;1775287;80;20246;-77
2021/04/12 02:18:33;;;;;;;;;;;;;;;6.07;63.92;102009.11;1775268;81;21647;-74
2021/04/12 02:21:24;;;;;;;;;;;;;;;6.06;63.94;102003.53;1775479;80;20131;-75
2021/04/12 02:24:06;;;;;;;;;;;;;;;6.04;63.94;102001.45;1775501;80;20211;-76
2021/04/12 02:26:56;;;;;;;;;;;;;;;6.00;64.26;102004.98;1775359;80;20144;-74
2021/04/12 02:29:30;;;;;;;;;;;;;;;5.98;64.55;101995.61;1775182;81;20282;-76
2021/04/12 02:32:11;;;;;;;;;;;;;;;5.98;64.75;102001.62;1775336;81;22206;-79
2021/04/12 02:34:48;;;;;;;;;;;;;;;5.98;64.86;102000.77;1775220;80;20516;-80
2021/04/12 02:37:53;;;;;;;;;;;;;;;5.96;64.92;102002.11;1775250;80;20155;-80
2021/04/12 02:40:30;;;;;;;;;;;;;;;5.93;65.03;102002.19;1775358;81;20112;-79
2021/04/12 02:43:05;;;;;;;;;;;;;;;5.89;65.16;102003.14;1775420;80;20155;-80
2021/04/12 02:45:56;;;;;;;;;;;;;;;5.88;65.18;102001.88;1777244;81;21319;-77
2021/04/12 02:48:39;;;;;;;;;;;;;;;5.83;65.27;101997.68;1778431;81;20132;-79
2021/04/12 02:51:17;;;;;;;;;;;;;;;5.80;65.35;102000.34;1775538;81;20490;-75
2021/04/12 02:54:11;;;;;;;;;;;;;;;5.77;65.51;101995.70;1775269;80;20504;-78
2021/04/12 02:57:01;;;;;;;;;;;;;;;5.79;65.55;101998.63;1775308;81;20227;-79
2021/04/12 02:59:51;;;;;;;;;;;;;;;5.77;65.61;101991.83;1775242;81;21196;-79
2021/04/12 03:02:31;;;;;;;;;;;;;;;5.74;65.60;101994.48;1775263;81;20147;-76
2021/04/12 03:05:27;;;;;;;;;;;;;;;5.69;65.77;101992.02;1775206;81;20135;-79
2021/04/12 03:08:18;;;;;;;;;;;;;;;5.67;66.02;101991.22;1775348;81;20231;-79
2021/04/12 03:10:53;;;;;;;;;;;;;;;5.64;65.91;101984.00;1775337;81;20215;-79
2021/04/12 03:13:59;;;;;;;;;;;;;;;5.62;65.92;101994.77;1775404;81;21350;-79
2021/04/12 03:16:53;;;;;;;;;;;;;;;5.61;65.83;101989.23;1775268;81;20211;-79
2021/04/12 03:19:44;;;;;;;;;;;;;;;5.58;65.70;101986.30;1775256;80;20135;-79
2021/04/12 03:22:16;;;;;;;;;;;;;;;5.56;65.62;101985.47;1775271;81;20136;-79
2021/04/12 03:25:06;;;;;;;;;;;;;;;5.52;65.60;101979.16;1779127;80;20377;-76
2021/04/12 03:28:07;;;;;;;;;;;;;;;5.50;65.62;101981.75;1776461;80;21257;-78
2021/04/12 03:30:49;;;;;;;;;;;;;;;5.50;65.50;101980.91;1761104;81;20768;-78
2021/04/12 03:33:41;;;;;;;;;;;;;;;5.47;65.44;101984.41;1761984;81;20263;-78
2021/04/12 03:36:18;;;;;;;;;;;;;;;5.45;65.52;101986.62;1770468;81;20135;-77
2021/04/12 03:39:10;;;;;;;;;;;;;;;5.43;65.67;101985.35;1778263;80;20485;-76
2021/04/12 03:41:59;;;;;;;;;;;;;;;5.43;65.99;101994.36;1783710;79;22125;-78
2021/04/12 03:44:40;;;;;;;;;;;;;;;5.42;66.19;101992.69;1784018;80;20734;-78
2021/04/12 03:47:14;;;;;;;;;;;;;;;5.39;66.32;101986.33;1784728;80;20187;-78
2021/04/12 03:50:21;;;;;;;;;;;;;;;5.36;66.52;101993.27;1784355;80;20132;-80
2021/04/12 03:53:09;;;;;;;;;;;;;;;5.34;66.78;101989.00;1784941;80;20215;-79
2021/04/12 03:55:55;;;;;;;;;;;;;;;5.33;67.07;101995.02;1778372;80;21153;-78
2021/04/12 03:58:59;;;;;;;;;;;;;;;5.31;67.25;101993.36;1749226;80;20238;-78
2021/04/12 04:01:49;;;;;;;;;;;;;;;5.28;67.59;102001.16;1785809;79;20116;-79
2021/04/12 04:04:32;;;;;;;;;;;;;;;5.25;67.84;102002.52;1787200;79;20112;-80
2021/04/12 04:07:08;;;;;;;;;;;;;;;5.22;68.21;102002.59;1785249;80;20210;-79
2021/04/12 04:09:56;;;;;;;;;;;;;;;5.24;68.26;101995.67;1782677;80;21197;-79
2021/04/12 04:12:40;;;;;;;;;;;;;;;5.25;68.34;101997.37;1784065;80;20183;-79
2021/04/12 04:15:11;;;;;;;;;;;;;;;5.25;68.35;101994.36;1784486;79;20206;-79
2021/04/12 04:17:54;;;;;;;;;;;;;;;5.28;68.24;102002.45;1784756;80;20199;-78
2021/04/12 04:20:31;;;;;;;;;;;;;;;5.29;68.21;102001.14;1749385;80;20247;-77
2021/04/12 04:23:36;;;;;;;;;;;;;;;5.30;68.09;102006.67;1781775;78;21205;-77
2021/04/12 04:26:11;;;;;;;;;;;;;;;5.30;68.04;102005.38;1792913;79;20188;-79
2021/04/12 04:29:10;;;;;;;;;;;;;;;5.35;67.85;102005.29;1761570;81;20477;-77
2021/04/12 04:31:59;;;;;;;;;;;;;;;5.38;67.67;101997.50;1792477;79;20479;-77
2021/04/12 04:34:30;;;;;;;;;;;;;;;5.43;67.45;101999.51;1784682;80;20218;-78
2021/04/12 04:37:08;;;;;;;;;;;;;;;5.48;67.32;101999.41;1784052;79;21153;-78
2021/04/12 04:39:52;;;;;;;;;;;;;;;5.48;67.19;102000.27;1780380;79;20234;-77
2021/04/12 04:42:44;;;;;;;;;;;;;;;5.51;67.04;102001.91;1778879;81;20108;-78
2021/04/12 04:45:19;;;;;;;;;;;;;;;5.55;67.04;102010.80;1785056;79;20262;-78
2021/04/12 04:48:16;;;;;;;;;;;;;;;5.61;66.98;102004.24;1785913;80;20145;-78
2021/04/12 04:51:05;;;;;;;;;;;;;;;5.61;67.03;101998.24;1776681;81;21181;-77
2021/04/12 04:53:58;;;;;;;;;;;;;;;5.65;67.10;102001.12;1776385;80;20237;-77
2021/04/12 04:56:47;;;;;;;;;;;;;;;5.68;67.33;101999.33;1776092;79;20314;-77
2021/04/12 04:59:36;;;;;;;;;;;;;;;5.74;68.12;102003.50;1775278;79;20551;-79
2021/04/12 05:02:33;;;;;;;;;;;;;;;5.85;68.56;102002.38;1775780;80;20600;-80
2021/04/12 05:05:24;;;;;;;;;;;;;;;6.00;68.55;101998.55;1776052;80;21187;-78
2021/04/12 05:08:12;;;;;;;;;;;;;;;6.15;68.57;101999.89;1775874;81;20559;-78
2021/04/12 05:10:55;;;;;;;;;;;;;;;6.25;68.79;101995.72;1775835;81;20481;-78
2021/04/12 05:13:46;;;;;;;;;;;;;;;6.43;67.81;101991.81;1775170;79;20224;-76
2021/04/12 05:16:43;;;;;;;;;;;;;;;6.62;66.23;101989.13;1775155;79;20144;-76
2021/04/12 05:19:35;;;;;;;;;;;;;;;6.85;64.90;101989.31;1779162;81;21182;-74
2021/04/12 05:22:26;;;;;;;;;;;;;;;6.98;64.93;101991.52;1777856;80;20155;-80
2021/04/12 05:25:16;;;;;;;;;;;;;;;7.07;64.83;101986.07;1777585;81;20191;-79
2021/04/12 05:28:06;;;;;;;;;;;;;;;7.14;65.06;101981.98;1775948;81;20314;-79
2021/04/12 05:31:01;;;;;;;;;;;;;;;7.23;64.77;101987.30;1718919;80;20195;-79
2021/04/12 05:33:39;;;;;;;;;;;;;;;7.34;64.34;101980.04;1719720;82;21207;-80
2021/04/12 05:36:39;;;;;;;;;;;;;;;7.47;64.09;101971.02;1853759;76;20255;-80
2021/04/12 05:39:20;;;;;;;;;;;;;;;7.54;63.72;101966.49;1824117;78;20654;-77
2021/04/12 05:42:18;;;;;;;;;;;;;;;7.70;62.69;101969.82;1823357;78;21187;-75
2021/04/12 05:45:17;;;;;;;;;;;;;;;7.89;60.93;101975.21;1823462;78;20147;-78
2021/04/12 05:48:06;;;;;;;;;;;;;;;8.09;61.16;101966.33;1823649;77;20151;-78
2021/04/12 05:51:08;;;;;;;;;;;;;;;8.21;59.52;101966.34;1823301;78;20254;-79
2021/04/12 05:53:42;;;;;;;;;;;;;;;8.37;58.65;101967.52;1823221;77;20131;-76
2021/04/12 05:56:47;;;;;;;;;;;;;;;8.55;57.13;101971.19;1820824;77;21198;-76
2021/04/12 05:59:28;;;;;;;;;;;;;;;8.71;56.79;101967.14;1808464;77;20203;-79
2021/04/12 06:02:20;;;;;;;;;;;;;;;8.87;56.53;101963.89;1792252;78;20619;-78
2021/04/12 06:05:00;;;;;;;;;;;;;;;8.98;55.38;101967.37;1779497;77;20305;-80
2021/04/12 06:07:35;;;;;;;;;;;;;;;9.15;55.23;101966.72;1823435;78;20179;-79
2021/04/12 06:10:25;;;;;;;;;;;;;;;9.30;54.78;101976.02;1822914;77;22107;-81
2021/04/12 06:13:07;;;;;;;;;;;;;;;9.42;54.13;101972.93;1822772;77;20648;-79
2021/04/12 06:15:49;;;;;;;;;;;;;;;9.61;52.88;101973.47;1820829;77;20151;-77
2021/04/12 06:18:50;;;;;;;;;;;;;;;9.75;52.20;101964.23;1793160;77;20328;-77
2021/04/12 06:21:25;;;;;;;;;;;;;;;9.88;52.13;101966.70;1790071;79;20621;-77
2021/04/12 06:24:16;;;;;;;;;;;;;;;10.04;49.61;101961.25;1789949;79;21054;-77
2021/04/12 06:26:54;;;;;;;;;;;;;;;10.15;49.78;101954.31;1789845;79;20146;-78
2021/04/12 06:29:39;;;;;;;;;;;;;;;10.27;48.50;101960.28;1790564;79;20351;-74
2021/04/12 06:32:47;;;;;;;;;;;;;;;10.39;48.78;101958.89;1791134;79;20141;-73
2021/04/12 06:35:43;;;;;;;;;;;;;;;10.47;48.42;101964.11;1790622;80;20237;-78
2021/04/12 06:38:33;;;;;;;;;;;;;;;10.60;48.22;101954.86;1790669;80;21205;-75
2021/04/12 06:41:08;;;;;;;;;;;;;;;10.71;47.76;101962.17;1789551;80;20832;-74
2021/04/12 06:44:12;;;;;;;;;;;;;;;10.81;47.13;101960.84;1789894;80;20189;-74
2021/04/12 06:46:57;;;;;;;;;;;;;;;10.87;46.91;101959.70;1789954;80;20142;-74
2021/04/12 06:49:41;;;;;;;;;;;;;;;10.95;45.73;101960.17;1789924;79;20515;-75
2021/04/12 06:52:34;;;;;;;;;;;;;;;11.03;47.49;101960.67;1813307;78;22146;-75
2021/04/12 06:55:19;;;;;;;;;;;;;;;11.12;46.25;101956.34;1820381;79;20133;-78
2021/04/12 06:58:09;;;;;;;;;;;;;;;11.24;45.08;101950.55;1820505;79;20180;-76
2021/04/12 07:00:57;;;;;;;;;;;;;;;11.35;45.16;101955.23;1768663;78;20172;-80
2021/04/12 07:03:56;;;;;;;;;;;;;;;11.46;45.56;101951.64;1821115;78;20334;-78
2021/04/12 07:06:46;;;;;;;;;;;;;;;11.56;45.18;101955.47;1820538;78;21379;-81
2021/04/12 07:09:32;;;;;;;;;;;;;;;11.73;44.27;101952.07;1819974;79;20157;-77
2021/04/12 07:12:35;;;;;;;;;;;;;;;11.83;41.89;101946.34;1821223;78;20160;-74
2021/04/12 07:15:38;;;;;;;;;;;;;;;11.93;42.35;101954.06;1820339;79;20219;-75
2021/04/12 07:18:44;;;;;;;;;;;;;;;12.05;42.77;101952.13;1820797;79;20256;-73
2021/04/12 07:21:40;;;;;;;;;;;;;;;12.16;41.58;101948.48;1819066;79;21260;-75
2021/04/12 07:24:32;;;;;;;;;;;;;;;12.28;40.67;101948.33;1819678;79;20602;-77
2021/04/12 07:27:35;;;;;;;;;;;;;;;12.42;40.85;101951.48;1820453;78;20136;-74
2021/04/12 07:30:29;;;;;;;;;;;;;;;12.55;40.09;101943.39;1820880;79;20137;-77
2021/04/12 07:33:38;;;;;;;;;;;;;;;12.68;39.48;101941.36;1820513;79;20255;-77
2021/04/12 07:36:25;;;;;;;;;;;;;;;12.81;39.97;101943.28;1820749;78;21354;-80
2021/04/12 07:39:33;;;;;;;;;;;;;;;12.94;39.18;101945.59;1820407;78;20291;-81
2021/04/12 07:42:24;;;;;;;;;;;;;;;13.04;41.31;101941.55;1751626;81;20578;-75
2021/04/12 07:45:15;;;;;;;;;;;;;;;13.09;41.08;101944.77;1751192;82;20236;-78
2021/04/12 07:48:16;;;;;;;;;;;;;;;13.15;39.73;101941.81;1808856;78;20240;-72
2021/04/12 07:50:54;;;;;;;;;;;;;;;13.21;40.14;101942.30;1820471;78;21203;-74
2021/04/12 07:53:26;;;;;;;;;;;;;;;13.33;38.50;101943.86;1820432;78;20502;-77
2021/04/12 07:56:01;;;;;;;;;;;;;;;13.36;38.12;101936.70;1819204;78;20133;-75
2021/04/12 07:59:07;;;;;;;;;;;;;;;13.42;38.59;101938.95;1791837;79;20248;-78
2021/04/12 08:01:54;;;;;;;;;;;;;;;13.55;37.04;101939.09;1820254;78;20224;-74
2021/04/12 08:04:52;;;;;;;;;;;;;;;13.67;34.89;101927.92;1820074;79;21362;-75
2021/04/12 08:07:58;;;;;;;;;;;;;;;13.77;35.15;101927.30;1820256;79;20141;-74
2021/04/12 08:10:56;;;;;;;;;;;;;;;13.89;34.52;101917.89;1820648;78;20242;-81
2021/04/12 08:13:55;;;;;;;;;;;;;;;13.90;35.26;101913.06;1820325;78;20109;-75
2021/04/12 08:17:01;;;;;;;;;;;;;;;13.98;33.65;101912.12;1820273;78;20244;-76
2021/04/12 08:20:01;;;;;;;;;;;;;;;14.03;33.87;101909.25;1790374;79;20244;-74
2021/04/12 08:23:01;;;;;;;;;;;;;;;14.08;33.04;101912.41;1819037;79;20129;-75
2021/04/12 08:25:45;;;;;;;;;;;;;;;14.14;33.83;101903.73;1820217;78;20267;-72
2021/04/12 08:28:44;;;;;;;;;;;;;;;14.32;32.85;101903.09;1820134;78;20216;-76
2021/04/12 08:31:29;;;;;;;;;;;;;;;14.46;31.71;101893.94;1821488;78;20224;-78
2021/04/12 08:34:38;;;;;;;;;;;;;;;14.61;32.43;101894.31;1821618;78;21262;-79
2021/04/12 08:37:40;;;;;;;;;;;;;;;14.73;32.63;101887.45;1825425;78;20679;-73
2021/04/12 08:40:24;;;;;;;;;;;;;;;14.91;30.42;101888.88;1826252;78;20554;-75
2021/04/12 08:43:17;;;;;;;;;;;;;;;14.98;31.26;101881.48;1826908;78;20220;-78
2021/04/12 08:46:07;;;;;;;;;;;;;;;15.06;30.51;101880.03;1826454;78;20160;-78
2021/04/12 08:48:47;;;;;;;;;;;;;;;15.12;31.30;101881.42;1822305;78;21138;-75
2021/04/12 08:51:54;;;;;;;;;;;;;;;15.22;29.89;101877.27;1825729;78;20204;-75
2021/04/12 08:55:02;;;;;;;;;;;;;;;15.25;29.77;101872.65;1795788;78;20152;-74
2021/04/12 08:57:39;;;;;;;;;;;;;;;15.30;29.83;101868.44;1826484;78;20204;-76
2021/04/12 09:00:47;;;;;;;;;;;;;;;15.28;30.28;101865.09;1826994;78;20295;-79
2021/04/12 09:03:33;;;;;;;;;;;;;;;15.40;30.92;101856.89;1689722;85;21375;-75
2021/04/12 09:06:28;;;;;;;;;;;;;;;15.57;29.94;101856.63;1686939;83;20543;-76
2021/04/12 09:09:22;;;;;;;;;;;;;;;15.67;29.18;101853.73;1742356;81;20333;-78
2021/04/12 09:12:14;;;;;;;;;;;;;;;15.76;29.06;101854.44;1748777;82;20155;-76
2021/04/12 09:15:08;;;;;;;;;;;;;;;15.86;29.38;101854.14;1748860;82;20523;-74
2021/04/12 09:18:08;;;;;;;;;;;;;;;15.98;28.62;101848.55;1748823;81;22118;-76
2021/04/12 09:20:41;;;;;;;;;;;;;;;16.01;27.56;101847.02;1738280;81;20513;-81
2021/04/12 09:23:13;;;;;;;;;;;;;;;15.97;27.75;101839.84;1687282;85;20147;-76
2021/04/12 09:26:17;;;;;;;;;;;;;;;15.96;27.33;101841.25;1743605;81;20162;-78
2021/04/12 09:29:20;;;;;;;;;;;;;;;15.95;28.65;101835.20;1744305;82;20277;-75
2021/04/12 09:32:13;;;;;;;;;;;;;;;15.99;29.15;101833.17;1743925;82;21189;-74
2021/04/12 09:35:08;;;;;;;;;;;;;;;15.99;28.47;101826.17;1744073;82;20630;-76
2021/04/12 09:37:57;;;;;;;;;;;;;;;16.05;29.31;101821.80;1748906;81;20182;-75
2021/04/12 09:40:46;;;;;;;;;;;;;;;16.23;28.95;101817.06;1748859;82;20217;-77
2021/04/12 09:43:34;;;;;;;;;;;;;;;16.37;27.71;101810.34;1749032;82;20543;-75
2021/04/12 09:46:37;;;;;;;;;;;;;;;16.52;27.13;101810.57;1738925;82;22050;-76
2021/04/12 09:49:25;;;;;;;;;;;;;;;16.62;26.50;101807.68;1743699;81;20583;-78
2021/04/12 09:51:57;;;;;;;;;;;;;;;17.23;26.10;101807.05;1747484;81;20602;-77
2021/04/12 09:54:57;;;;;;;;;;;;;;;18.42;23.96;101794.12;1738009;82;20593;-74
2021/04/12 09:57:46;;;;;;;;;;;;;;;19.71;22.88;101798.60;1738166;82;20556;-76
2021/04/12 10:00:33;;;;;;;;;;;;;;;20.74;21.34;101790.69;1688371;85;21182;-76
2021/04/12 10:03:26;;;;;;;;;;;;;;;21.50;20.91;101786.29;1741291;81;20243;-75
2021/04/12 10:06:18;;;;;;;;;;;;;;;21.72;20.45;101781.12;1741068;82;20306;-75
2021/04/12 10:08:56;;;;;;;;;;;;;;;22.27;19.93;101780.64;1740800;81;20303;-77
2021/04/12 10:11:27;;;;;;;;;;;;;;;22.63;19.29;101781.80;1740201;81;20461;-77
2021/04/12 10:14:04;;;;;;;;;;;;;;;23.32;18.50;101772.25;1745185;81;22133;-82
2021/04/12 10:16:39;;;;;;;;;;;;;;;23.87;18.63;101767.41;1745706;81;20765;-75
2021/04/12 10:19:21;;;;;;;;;;;;;;;24.64;17.31;101771.86;1732921;83;20499;-81
2021/04/12 10:21:55;;;;;;;;;;;;;;;24.69;17.10;101776.20;1683100;84;20571;-77
2021/04/12 10:24:36;;;;;;;;;;;;;;;24.60;17.25;101768.40;1741299;81;20315;-78
2021/04/12 10:27:31;;;;;;;;;;;;;;;24.28;17.38;101775.00;1741623;82;21369;-75
2021/04/12 10:30:16;;;;;;;;;;;;;;;24.99;17.06;101768.55;1746296;82;20305;-81
2021/04/12 10:32:47;;;;;;;;;;;;;;;25.48;16.47;101760.81;1745693;81;20238;-76
2021/04/12 10:35:40;;;;;;;;;;;;;;;25.71;16.20;101757.77;1748438;80;20266;-81
2021/04/12 10:38:23;;;;;;;;;;;;;;;25.66;16.22;101749.95;1734463;83;20254;-76
2021/04/12 10:41:32;;;;;;;;;;;;;;;26.37;16.27;101756.89;1683296;84;20294;-78
2021/04/12 10:44:18;;;;;;;;;;;;;;;26.80;15.94;101758.38;1737641;82;20247;-74
2021/04/12 10:47:01;;;;;;;;;;;;;;;26.40;15.37;101749.88;1741351;81;20388;-77
2021/04/12 10:49:39;;;;;;;;;;;;;;;24.98;16.64;101753.14;1746131;82;20255;-78
2021/04/12 10:52:29;;;;;;;;;;;;;;;23.42;17.71;101751.80;1733595;82;20158;-82
2021/04/12 10:55:22;;;;;;;;;;;;;;;22.20;18.93;101748.67;1683125;84;21363;-81
2021/04/12 10:58:11;;;;;;;;;;;;;;;21.45;19.93;101752.86;1741344;82;20276;-74
2021/04/12 11:00:48;;;;;;;;;;;;;;;21.22;20.31;101754.21;1741533;82;20270;-79
2021/04/12 11:03:36;;;;;;;;;;;;;;;21.53;20.09;101741.09;1746000;81;20285;-77
2021/04/12 11:06:27;;;;;;;;;;;;;;;22.45;19.98;101741.30;1746308;81;20321;-81
2021/04/12 11:09:11;;;;;;;;;;;;;;;23.43;19.11;101737.55;1737164;82;21485;-80
2021/04/12 11:11:46;;;;;;;;;;;;;;;24.21;18.23;101735.02;1734275;81;20168;-80
2021/04/12 11:14:37;;;;;;;;;;;;;;;24.46;17.91;101729.23;1684505;84;20123;-81
2021/04/12 11:17:21;;;;;;;;;;;;;;;24.22;17.98;101724.23;1741457;81;20213;-79
2021/04/12 11:19:59;;;;;;;;;;;;;;;23.70;18.31;101729.40;1741799;82;20201;-81
2021/04/12 11:23:02;;;;;;;;;;;;;;;23.16;18.78;101723.50;1737398;82;21216;-78
2021/04/12 11:25:51;;;;;;;;;;;;;;;23.33;19.37;101718.26;1746215;81;20138;-75
2021/04/12 11:28:26;;;;;;;;;;;;;;;23.56;19.17;101716.75;1733104;82;20238;-76
2021/04/12 11:31:00;;;;;;;;;;;;;;;24.31;19.12;101709.67;1733037;81;20237;-77
2021/04/12 11:33:35;;;;;;;;;;;;;;;25.18;18.52;101705.75;1683645;84;20243;-79
2021/04/12 11:36:13;;;;;;;;;;;;;;;26.17;17.42;101704.14;1733221;83;20762;-76
2021/04/12 11:38:53;;;;;;;;;;;;;;;27.03;17.24;101701.05;1732358;82;20295;-77
2021/04/12 11:41:24;;;;;;;;;;;;;;;27.97;14.67;101703.38;1683138;84;20578;-76
2021/04/12 11:43:55;;;;;;;;;;;;;;;28.27;14.47;101699.07;1708686;84;20300;-75
2021/04/12 11:46:39;;;;;;;;;;;;;;;28.12;14.50;101692.98;1732454;83;20592;-72
2021/04/12 11:49:36;;;;;;;;;;;;;;;28.12;14.96;101692.98;1732276;82;21209;-77
2021/04/12 11:52:11;;;;;;;;;;;;;;;27.68;14.85;101682.95;1733169;83;20243;-76
2021/04/12 11:54:47;;;;;;;;;;;;;;;26.61;15.45;101684.30;1733020;82;20206;-76
2021/04/12 11:57:42;;;;;;;;;;;;;;;25.37;16.44;101679.31;1705381;82;20318;-73
2021/04/12 12:00:19;;;;;;;;;;;;;;;24.39;17.71;101685.78;1733052;82;20231;-76
2021/04/12 12:03:15;;;;;;;;;;;;;;;23.08;19.22;101687.69;1717333;82;21617;-76
2021/04/12 12:06:09;;;;;;;;;;;;;;;22.79;20.11;101691.15;1706130;84;20160;-77
2021/04/12 12:08:43;;;;;;;;;;;;;;;23.40;19.15;101681.75;1705782;83;20255;-74
2021/04/12 12:11:30;;;;;;;;;;;;;;;23.83;19.07;101687.36;1705974;84;20251;-80
2021/04/12 12:14:35;;;;;;;;;;;;;;;23.86;19.23;101676.92;1697743;83;20584;-76
2021/04/12 12:17:06;;;;;;;;;;;;;;;23.75;19.40;101679.38;1706054;84;21251;-77
2021/04/12 12:19:46;;;;;;;;;;;;;;;23.35;19.63;101674.75;1705923;84;20686;-76
2021/04/12 12:22:29;;;;;;;;;;;;;;;22.90;19.81;101667.08;1705947;84;20339;-75
2021/04/12 12:25:05;;;;;;;;;;;;;;;22.83;20.22;101673.14;1705774;84;20171;-78
2021/04/12 12:27:38;;;;;;;;;;;;;;;22.67;20.21;101655.34;1706326;84;20497;-75
2021/04/12 12:30:20;;;;;;;;;;;;;;;22.88;19.72;101657.13;1705808;84;21183;-77
2021/04/12 12:32:52;;;;;;;;;;;;;;;22.82;19.96;101653.78;1705976;84;20564;-76
2021/04/12 12:35:36;;;;;;;;;;;;;;;22.88;20.09;101643.09;1706022;83;20303;-77
2021/04/12 12:38:27;;;;;;;;;;;;;;;22.58;20.53;101654.44;1705675;84;20227;-77
2021/04/12 12:41:02;;;;;;;;;;;;;;;22.33;20.75;101647.31;1706050;84;20501;-77
2021/04/12 12:43:34;;;;;;;;;;;;;;;22.13;20.70;101654.58;1691372;84;21219;-73
2021/04/12 12:46:14;;;;;;;;;;;;;;;21.83;21.09;101644.33;1705835;83;20526;-81
2021/04/12 12:48:54;;;;;;;;;;;;;;;21.72;21.25;101646.38;1705851;84;20279;-75
2021/04/12 12:51:33;;;;;;;;;;;;;;;21.57;21.50;101652.64;1705815;84;20233;-72
2021/04/12 12:54:06;;;;;;;;;;;;;;;21.32;21.41;101653.33;1733501;82;20215;-77
2021/04/12 12:56:37;;;;;;;;;;;;;;;20.95;21.66;101649.38;1733630;82;21197;-75
2021/04/12 12:59:08;;;;;;;;;;;;;;;20.49;22.10;101640.94;1705918;83;20292;-79
2021/04/12 13:01:39;;;;;;;;;;;;;;;20.21;22.71;101647.88;1705396;83;20266;-76
2021/04/12 13:04:09;;;;;;;;;;;;;;;20.45;22.77;101643.53;1731789;81;20278;-77
2021/04/12 13:06:37;;;;;;;;;;;;;;;21.04;22.30;101641.91;1732366;82;20226;-77
2021/04/12 13:09:18;;;;;;;;;;;;;;;22.00;21.45;101642.23;1732598;82;21193;-77
2021/04/12 13:11:49;;;;;;;;;;;;;;;23.19;20.24;101636.28;1683459;85;20575;-76
2021/04/12 13:14:28;;;;;;;;;;;;;;;24.43;19.08;101635.38;1741544;82;20218;-76
2021/04/12 13:16:59;;;;;;;;;;;;;;;25.49;17.86;101633.59;1746155;82;20123;-75
2021/04/12 13:19:48;;;;;;;;;;;;;;;25.37;17.61;101629.62;1733304;83;20286;-76
2021/04/12 13:22:23;;;;;;;;;;;;;;;25.02;17.55;101624.30;1683581;85;21191;-76
2021/04/12 13:24:52;;;;;;;;;;;;;;;24.72;18.19;101619.23;1742352;82;20233;-79
2021/04/12 13:27:23;;;;;;;;;;;;;;;25.07;17.64;101624.62;1745822;82;20119;-76
2021/04/12 13:29:56;;;;;;;;;;;;;;;25.32;17.57;101617.37;1733394;83;20159;-74
2021/04/12 13:32:29;;;;;;;;;;;;;;;25.85;17.29;101617.89;1683144;85;20223;-75
2021/04/12 13:35:04;;;;;;;;;;;;;;;25.83;16.82;101619.91;1741367;82;20580;-81
2021/04/12 13:37:49;;;;;;;;;;;;;;;25.64;17.14;101619.05;1746399;81;20209;-79
2021/04/12 13:40:29;;;;;;;;;;;;;;;25.77;17.28;101624.11;1746051;82;20310;-81
2021/04/12 13:43:01;;;;;;;;;;;;;;;25.60;17.14;101620.39;1733378;82;20123;-78
2021/04/12 13:45:35;;;;;;;;;;;;;;;25.85;17.17;101616.56;1694459;83;20221;-79
2021/04/12 13:48:08;;;;;;;;;;;;;;;26.15;16.57;101620.16;1710962;83;21284;-76
2021/04/12 13:50:40;;;;;;;;;;;;;;;25.51;17.01;101613.47;1739259;82;20727;-77
2021/04/12 13:53:11;;;;;;;;;;;;;;;25.08;17.68;101615.64;1741341;82;20138;-75
2021/04/12 13:55:49;;;;;;;;;;;;;;;25.04;17.77;101617.00;1738959;82;20210;-75
2021/04/12 13:58:27;;;;;;;;;;;;;;;24.51;18.35;101616.77;1742862;82;20313;-77
2021/04/12 14:01:15;;;;;;;;;;;;;;;23.87;18.80;101613.12;1739633;82;21429;-77
2021/04/12 14:04:05;;;;;;;;;;;;;;;23.03;19.39;101615.86;1763909;81;20217;-76
2021/04/12 14:06:58;;;;;;;;;;;;;;;22.18;20.61;101615.77;1924572;73;20650;-78
2021/04/12 14:09:38;;;;;;;;;;;;;;;21.60;21.04;101619.35;1892060;76;20235;-79
2021/04/12 14:12:08;;;;;;;;;;;;;;;21.44;21.43;101621.81;1892415;76;21181;-77
2021/04/12 14:14:57;;;;;;;;;;;;;;;21.49;21.51;101622.19;1891861;76;20124;-78
2021/04/12 14:17:33;;;;;;;;;;;;;;;21.68;21.46;101619.91;1892308;76;20152;-78